sensor_id;sensor_type;location;lat;lon;timestamp;pressure;altitude;pressure_sealevel;temperature;humidity
18821;BME280;9539;59.332;18.034;2022-07-29T00:01:14;101849.69;;;14.57;100.00
18821;BME280;9539;59.332;18.034;2022-07-29T00:03:41;101850.81;;;14.53;100.00
18821;BME280;9539;59.332;18.034;2022-07-29T00:06:08;101847.28;;;14.52;100.00
18821;BME280;9539;59.332;18.034;2022-07-29T00:08:35;101855.78;;;14.59;100.00
18821;BME280;9539;59.332;18.034;2022-07-29T00:11:03;101847.69;;;14.60;100.00
18821;BME280;9539;59.332;18.034;2022-07-29T00:13:30;101846.72;;;14.61;100.00
18821;BME280;9539;59.332;18.034;2022-07-29T00:15:56;101844.16;;;14.60;100.00
18821;BME280;9539;59.332;18.034;2022-07-29T00:18:31;101852.38;;;14.57;100.00
18821;BME280;9539;59.332;18.034;2022-07-29T00:21:04;101849.59;;;14.58;100.00
18821;BME280;9539;59.332;18.034;2022-07-29T00:23:30;101846.06;;;14.58;100.00
18821;BME280;9539;59.332;18.034;2022-07-29T00:25:57;101846.06;;;14.58;100.00
18821;BME280;9539;59.332;18.034;2022-07-29T00:28:25;101842.63;;;14.56;100.00
18821;BME280;9539;59.332;18.034;2022-07-29T00:30:52;101848.69;;;14.44;100.00
18821;BME280;9539;59.332;18.034;2022-07-29T00:33:21;101844.09;;;14.46;100.00
18821;BME280;9539;59.332;18.034;2022-07-29T00:35:49;101832.47;;;14.47;100.00
18821;BME280;9539;59.332;18.034;2022-07-29T00:38:18;101841.44;;;14.46;100.00
18821;BME280;9539;59.332;18.034;2022-07-29T00:40:45;101845.22;;;14.57;100.00
18821;BME280;9539;59.332;18.034;2022-07-29T00:43:13;101839.88;;;14.57;100.00
18821;BME280;9539;59.332;18.034;2022-07-29T00:45:44;101829.06;;;14.59;100.00
18821;BME280;9539;59.332;18.034;2022-07-29T00:48:14;101832.72;;;14.58;100.00
18821;BME280;9539;59.332;18.034;2022-07-29T00:50:43;101833.28;;;14.63;100.00
18821;BME280;9539;59.332;18.034;2022-07-29T00:53:11;101831.38;;;14.65;100.00
18821;BME280;9539;59.332;18.034;2022-07-29T00:55:38;101835.09;;;14.62;100.00
18821;BME280;9539;59.332;18.034;2022-07-29T00:58:05;101829.94;;;14.59;100.00
18821;BME280;9539;59.332;18.034;2022-07-29T01:00:33;101835.28;;;14.59;100.00
18821;BME280;9539;59.332;18.034;2022-07-29T01:03:03;101827.16;;;14.61;100.00
18821;BME280;9539;59.332;18.034;2022-07-29T01:05:30;101824.41;;;14.62;100.00
18821;BME280;9539;59.332;18.034;2022-07-29T01:08:00;101822.41;;;14.66;100.00
18821;BME280;9539;59.332;18.034;2022-07-29T01:10:29;101825.84;;;14.68;100.00
18821;BME280;9539;59.332;18.034;2022-07-29T01:12:58;101833.09;;;14.66;100.00
18821;BME280;9539;59.332;18.034;2022-07-29T01:15:25;101832.63;;;14.73;100.00
18821;BME280;9539;59.332;18.034;2022-07-29T01:18:03;101837.19;;;14.71;100.00
18821;BME280;9539;59.332;18.034;2022-07-29T01:20:45;101834.34;;;14.74;100.00
18821;BME280;9539;59.332;18.034;2022-07-29T01:26:33;101828.53;;;14.68;100.00
18821;BME280;9539;59.332;18.034;2022-07-29T01:29:10;101832.50;;;14.61;100.00
18821;BME280;9539;59.332;18.034;2022-07-29T01:31:42;101826.78;;;14.67;100.00
18821;BME280;9539;59.332;18.034;2022-07-29T01:34:15;101828.53;;;14.68;100.00
18821;BME280;9539;59.332;18.034;2022-07-29T01:36:47;101826.88;;;14.65;100.00
18821;BME280;9539;59.332;18.034;2022-07-29T01:39:19;101823.34;;;14.65;100.00
18821;BME280;9539;59.332;18.034;2022-07-29T01:41:49;101827.88;;;14.64;100.00
18821;BME280;9539;59.332;18.034;2022-07-29T01:44:20;101827.94;;;14.63;100.00
18821;BME280;9539;59.332;18.034;2022-07-29T01:46:51;101827.25;;;14.59;100.00
18821;BME280;9539;59.332;18.034;2022-07-29T01:49:21;101828.31;;;14.57;100.00
18821;BME280;9539;59.332;18.034;2022-07-29T01:51:51;101830.78;;;14.60;100.00
18821;BME280;9539;59.332;18.034;2022-07-29T01:54:22;101830.28;;;14.53;100.00
18821;BME280;9539;59.332;18.034;2022-07-29T01:56:53;101836.59;;;14.52;100.00
18821;BME280;9539;59.332;18.034;2022-07-29T01:59:24;101839.47;;;14.49;100.00
18821;BME280;9539;59.332;18.034;2022-07-29T02:01:53;101840.50;;;14.47;100.00
18821;BME280;9539;59.332;18.034;2022-07-29T02:04:20;101832.41;;;14.48;100.00
18821;BME280;9539;59.332;18.034;2022-07-29T02:06:49;101833.63;;;14.43;100.00
18821;BME280;9539;59.332;18.034;2022-07-29T02:09:17;101833.53;;;14.44;100.00
18821;BME280;9539;59.332;18.034;2022-07-29T02:11:49;101828.28;;;14.43;100.00
18821;BME280;9539;59.332;18.034;2022-07-29T02:14:19;101839.03;;;14.41;100.00
18821;BME280;9539;59.332;18.034;2022-07-29T02:16:52;101826.22;;;14.32;100.00
18821;BME280;9539;59.332;18.034;2022-07-29T02:19:24;101837.00;;;14.30;100.00
18821;BME280;9539;59.332;18.034;2022-07-29T02:21:56;101837.66;;;14.34;100.00
18821;BME280;9539;59.332;18.034;2022-07-29T02:24:28;101837.84;;;14.31;100.00
18821;BME280;9539;59.332;18.034;2022-07-29T02:26:56;101829.06;;;14.29;100.00
18821;BME280;9539;59.332;18.034;2022-07-29T02:29:26;101832.69;;;14.28;100.00
18821;BME280;9539;59.332;18.034;2022-07-29T02:31:57;101831.81;;;14.27;100.00
18821;BME280;9539;59.332;18.034;2022-07-29T02:34:25;101831.81;;;14.27;100.00
18821;BME280;9539;59.332;18.034;2022-07-29T02:36:53;101832.69;;;14.28;100.00
18821;BME280;9539;59.332;18.034;2022-07-29T02:39:25;101844.22;;;14.28;100.00
18821;BME280;9539;59.332;18.034;2022-07-29T02:41:58;101843.44;;;14.26;100.00
18821;BME280;9539;59.332;18.034;2022-07-29T02:44:27;101843.06;;;14.32;100.00
18821;BME280;9539;59.332;18.034;2022-07-29T02:47:06;101845.16;;;14.27;100.00
18821;BME280;9539;59.332;18.034;2022-07-29T02:49:37;101840.19;;;14.21;100.00
18821;BME280;9539;59.332;18.034;2022-07-29T02:52:09;101847.44;;;14.19;100.00
18821;BME280;9539;59.332;18.034;2022-07-29T02:54:42;101850.88;;;14.21;100.00
18821;BME280;9539;59.332;18.034;2022-07-29T02:57:15;101845.53;;;14.21;100.00
18821;BME280;9539;59.332;18.034;2022-07-29T02:59:47;101849.25;;;14.19;100.00
18821;BME280;9539;59.332;18.034;2022-07-29T03:02:20;101841.59;;;14.13;100.00
18821;BME280;9539;59.332;18.034;2022-07-29T03:04:48;101853.03;;;14.15;100.00
18821;BME280;9539;59.332;18.034;2022-07-29T03:07:20;101858.22;;;14.18;100.00
18821;BME280;9539;59.332;18.034;2022-07-29T03:09:48;101850.38;;;14.15;100.00
18821;BME280;9539;59.332;18.034;2022-07-29T03:12:15;101853.72;;;14.18;100.00
18821;BME280;9539;59.332;18.034;2022-07-29T03:14:43;101862.25;;;14.25;100.00
18821;BME280;9539;59.332;18.034;2022-07-29T03:17:11;101859.56;;;14.25;100.00
18821;BME280;9539;59.332;18.034;2022-07-29T03:19:42;101856.19;;;14.21;100.00
18821;BME280;9539;59.332;18.034;2022-07-29T03:22:09;101856.53;;;14.31;100.00
18821;BME280;9539;59.332;18.034;2022-07-29T03:24:36;101869.28;;;14.42;100.00
18821;BME280;9539;59.332;18.034;2022-07-29T03:27:04;101868.84;;;14.49;100.00
18821;BME280;9539;59.332;18.034;2022-07-29T03:29:32;101872.28;;;14.51;100.00
18821;BME280;9539;59.332;18.034;2022-07-29T03:31:58;101868.47;;;14.55;100.00
18821;BME280;9539;59.332;18.034;2022-07-29T03:34:25;101876.19;;;14.60;100.00
18821;BME280;9539;59.332;18.034;2022-07-29T03:36:56;101872.41;;;14.64;100.00
18821;BME280;9539;59.332;18.034;2022-07-29T03:39:25;101872.13;;;14.68;100.00
18821;BME280;9539;59.332;18.034;2022-07-29T03:41:57;101872.91;;;14.70;100.00
18821;BME280;9539;59.332;18.034;2022-07-29T03:44:26;101873.47;;;14.75;100.00
18821;BME280;9539;59.332;18.034;2022-07-29T03:46:55;101873.28;;;14.78;100.00
18821;BME280;9539;59.332;18.034;2022-07-29T03:49:25;101877.22;;;14.87;100.00
18821;BME280;9539;59.332;18.034;2022-07-29T03:51:52;101875.31;;;14.89;100.00
18821;BME280;9539;59.332;18.034;2022-07-29T03:54:23;101868.66;;;14.96;100.00
18821;BME280;9539;59.332;18.034;2022-07-29T03:56:54;101869.13;;;15.03;100.00
18821;BME280;9539;59.332;18.034;2022-07-29T03:59:22;101872.28;;;15.09;100.00
18821;BME280;9539;59.332;18.034;2022-07-29T04:01:49;101869.97;;;15.17;100.00
18821;BME280;9539;59.332;18.034;2022-07-29T04:04:17;101879.25;;;15.26;100.00
18821;BME280;9539;59.332;18.034;2022-07-29T04:06:46;101875.41;;;15.30;100.00
18821;BME280;9539;59.332;18.034;2022-07-29T04:09:12;101884.91;;;15.36;100.00
18821;BME280;9539;59.332;18.034;2022-07-29T04:11:43;101884.03;;;15.35;100.00
18821;BME280;9539;59.332;18.034;2022-07-29T04:14:11;101884.59;;;15.40;100.00
18821;BME280;9539;59.332;18.034;2022-07-29T04:16:40;101885.09;;;15.47;100.00
18821;BME280;9539;59.332;18.034;2022-07-29T04:19:06;101887.84;;;15.45;100.00
18821;BME280;9539;59.332;18.034;2022-07-29T04:21:37;101889.28;;;15.51;100.00
18821;BME280;9539;59.332;18.034;2022-07-29T04:24:04;101885.09;;;15.47;100.00
18821;BME280;9539;59.332;18.034;2022-07-29T04:26:31;101866.34;;;15.47;100.00
18821;BME280;9539;59.332;18.034;2022-07-29T04:28:59;101889.38;;;15.64;100.00
18821;BME280;9539;59.332;18.034;2022-07-29T04:31:25;101889.19;;;15.67;100.00
18821;BME280;9539;59.332;18.034;2022-07-29T04:33:55;101888.53;;;15.63;100.00
18821;BME280;9539;59.332;18.034;2022-07-29T04:36:24;101886.78;;;15.76;100.00
18821;BME280;9539;59.332;18.034;2022-07-29T04:38:51;101881.31;;;16.19;100.00
18821;BME280;9539;59.332;18.034;2022-07-29T04:41:21;101876.56;;;17.01;100.00
18821;BME280;9539;59.332;18.034;2022-07-29T04:43:48;101875.88;;;17.97;100.00
18821;BME280;9539;59.332;18.034;2022-07-29T04:46:16;101876.56;;;18.36;100.00
18821;BME280;9539;59.332;18.034;2022-07-29T04:48:45;101877.06;;;19.44;100.00
18821;BME280;9539;59.332;18.034;2022-07-29T04:51:15;101880.38;;;19.48;100.00
18821;BME280;9539;59.332;18.034;2022-07-29T04:53:42;101877.63;;;20.67;100.00
18821;BME280;9539;59.332;18.034;2022-07-29T04:56:11;101871.66;;;21.36;100.00
18821;BME280;9539;59.332;18.034;2022-07-29T04:58:37;101869.31;;;22.11;95.29
18821;BME280;9539;59.332;18.034;2022-07-29T05:01:04;101875.25;;;23.11;90.03
18821;BME280;9539;59.332;18.034;2022-07-29T05:03:32;101868.28;;;23.73;86.22
18821;BME280;9539;59.332;18.034;2022-07-29T05:05:59;101863.75;;;24.36;78.69
18821;BME280;9539;59.332;18.034;2022-07-29T05:08:26;101865.78;;;25.21;73.95
18821;BME280;9539;59.332;18.034;2022-07-29T05:10:56;101863.34;;;25.78;66.61
18821;BME280;9539;59.332;18.034;2022-07-29T05:13:22;101863.09;;;26.21;62.03
18821;BME280;9539;59.332;18.034;2022-07-29T05:15:52;101867.00;;;25.35;65.57
18821;BME280;9539;59.332;18.034;2022-07-29T05:18:18;101865.84;;;23.79;73.68
18821;BME280;9539;59.332;18.034;2022-07-29T05:20:46;101866.00;;;23.78;77.42
18821;BME280;9539;59.332;18.034;2022-07-29T05:23:16;101858.19;;;24.81;69.63
18821;BME280;9539;59.332;18.034;2022-07-29T05:25:42;101869.75;;;24.12;71.25
18821;BME280;9539;59.332;18.034;2022-07-29T05:28:09;101866.78;;;25.96;62.26
18821;BME280;9539;59.332;18.034;2022-07-29T05:30:36;101867.34;;;25.32;60.41
18821;BME280;9539;59.332;18.034;2022-07-29T05:33:08;101875.00;;;24.23;63.92
18821;BME280;9539;59.332;18.034;2022-07-29T05:35:35;101875.59;;;23.35;72.56
18821;BME280;9539;59.332;18.034;2022-07-29T05:38:03;101876.63;;;24.34;69.83
18821;BME280;9539;59.332;18.034;2022-07-29T05:40:30;101875.34;;;26.17;58.72
18821;BME280;9539;59.332;18.034;2022-07-29T05:42:57;101877.25;;;27.06;53.82
18821;BME280;9539;59.332;18.034;2022-07-29T05:45:24;101883.22;;;27.65;50.01
18821;BME280;9539;59.332;18.034;2022-07-29T05:47:51;101876.84;;;28.11;47.42
18821;BME280;9539;59.332;18.034;2022-07-29T05:50:18;101881.41;;;28.42;47.32
18821;BME280;9539;59.332;18.034;2022-07-29T05:52:44;101882.41;;;27.56;44.96
18821;BME280;9539;59.332;18.034;2022-07-29T05:55:12;101884.94;;;27.66;46.44
18821;BME280;9539;59.332;18.034;2022-07-29T05:57:39;101881.50;;;27.72;43.69
18821;BME280;9539;59.332;18.034;2022-07-29T06:00:06;101882.81;;;26.15;43.32
18821;BME280;9539;59.332;18.034;2022-07-29T06:02:36;101877.47;;;27.52;40.51
18821;BME280;9539;59.332;18.034;2022-07-29T06:05:06;101886.34;;;27.45;40.00
18821;BME280;9539;59.332;18.034;2022-07-29T06:07:33;101884.91;;;28.96;38.11
18821;BME280;9539;59.332;18.034;2022-07-29T06:10:00;101883.22;;;28.27;37.75
18821;BME280;9539;59.332;18.034;2022-07-29T06:12:28;101885.25;;;28.55;37.22
18821;BME280;9539;59.332;18.034;2022-07-29T06:14:57;101883.38;;;27.71;38.23
18821;BME280;9539;59.332;18.034;2022-07-29T06:17:27;101882.13;;;28.81;37.29
18821;BME280;9539;59.332;18.034;2022-07-29T06:19:54;101888.06;;;27.86;35.18
18821;BME280;9539;59.332;18.034;2022-07-29T06:22:23;101892.94;;;27.98;31.95
18821;BME280;9539;59.332;18.034;2022-07-29T06:24:50;101892.91;;;26.31;34.73
18821;BME280;9539;59.332;18.034;2022-07-29T06:27:17;101897.50;;;28.06;32.59
18821;BME280;9539;59.332;18.034;2022-07-29T06:29:47;101897.41;;;27.44;34.50
18821;BME280;9539;59.332;18.034;2022-07-29T06:32:13;101899.22;;;26.80;37.18
18821;BME280;9539;59.332;18.034;2022-07-29T06:34:42;101899.84;;;28.85;34.16
18821;BME280;9539;59.332;18.034;2022-07-29T06:37:09;101899.22;;;28.98;33.22
18821;BME280;9539;59.332;18.034;2022-07-29T06:39:36;101902.59;;;28.09;31.36
18821;BME280;9539;59.332;18.034;2022-07-29T06:42:03;101895.78;;;26.30;35.10
18821;BME280;9539;59.332;18.034;2022-07-29T06:44:32;101891.22;;;25.54;38.28
18821;BME280;9539;59.332;18.034;2022-07-29T06:47:01;101903.41;;;27.39;34.44
18821;BME280;9539;59.332;18.034;2022-07-29T06:49:28;101908.75;;;27.80;33.37
18821;BME280;9539;59.332;18.034;2022-07-29T06:51:55;101897.31;;;28.84;30.65
18821;BME280;9539;59.332;18.034;2022-07-29T06:54:22;101900.56;;;29.75;29.90
18821;BME280;9539;59.332;18.034;2022-07-29T06:56:48;101903.97;;;29.77;29.75
18821;BME280;9539;59.332;18.034;2022-07-29T06:59:18;101900.47;;;29.25;30.06
18821;BME280;9539;59.332;18.034;2022-07-29T07:01:45;101905.97;;;27.41;32.54
18821;BME280;9539;59.332;18.034;2022-07-29T07:04:13;101907.53;;;26.71;33.57
18821;BME280;9539;59.332;18.034;2022-07-29T07:06:39;101902.63;;;26.66;33.99
18821;BME280;9539;59.332;18.034;2022-07-29T07:09:06;101909.25;;;24.95;37.42
18821;BME280;9539;59.332;18.034;2022-07-29T07:11:33;101905.13;;;25.77;37.04
18821;BME280;9539;59.332;18.034;2022-07-29T07:14:00;101910.41;;;24.57;38.54
18821;BME280;9539;59.332;18.034;2022-07-29T07:16:26;101905.19;;;23.83;40.32
18821;BME280;9539;59.332;18.034;2022-07-29T07:18:53;101907.78;;;24.30;40.34
18821;BME280;9539;59.332;18.034;2022-07-29T07:21:21;101906.09;;;24.02;41.20
18821;BME280;9539;59.332;18.034;2022-07-29T07:23:48;101899.91;;;24.98;39.74
18821;BME280;9539;59.332;18.034;2022-07-29T07:26:15;101912.50;;;26.67;37.44
18821;BME280;9539;59.332;18.034;2022-07-29T07:28:41;101902.28;;;26.69;36.08
18821;BME280;9539;59.332;18.034;2022-07-29T07:31:08;101907.16;;;28.70;33.55
18821;BME280;9539;59.332;18.034;2022-07-29T07:33:35;101898.84;;;29.01;32.79
18821;BME280;9539;59.332;18.034;2022-07-29T07:36:02;101896.00;;;28.72;33.63
18821;BME280;9539;59.332;18.034;2022-07-29T07:38:30;101903.97;;;28.58;33.06
18821;BME280;9539;59.332;18.034;2022-07-29T07:40:56;101897.84;;;26.36;35.33
18821;BME280;9539;59.332;18.034;2022-07-29T07:43:23;101900.22;;;26.39;36.69
18821;BME280;9539;59.332;18.034;2022-07-29T07:45:50;101895.63;;;26.31;37.44
18821;BME280;9539;59.332;18.034;2022-07-29T07:48:16;101888.38;;;25.98;37.75
18821;BME280;9539;59.332;18.034;2022-07-29T07:50:43;101895.69;;;27.59;35.66
18821;BME280;9539;59.332;18.034;2022-07-29T07:53:10;101888.81;;;29.60;32.48
18821;BME280;9539;59.332;18.034;2022-07-29T07:55:46;101885.72;;;25.38;36.83
18821;BME280;9539;59.332;18.034;2022-07-29T07:58:14;101888.16;;;25.83;37.16
18821;BME280;9539;59.332;18.034;2022-07-29T08:00:41;101886.13;;;26.67;36.12
18821;BME280;9539;59.332;18.034;2022-07-29T08:03:07;101885.75;;;26.46;34.75
18821;BME280;9539;59.332;18.034;2022-07-29T08:05:37;101893.53;;;28.16;33.08
18821;BME280;9539;59.332;18.034;2022-07-29T08:08:07;101890.28;;;29.04;32.68
18821;BME280;9539;59.332;18.034;2022-07-29T08:10:37;101889.09;;;29.51;32.04
18821;BME280;9539;59.332;18.034;2022-07-29T08:13:24;101891.75;;;31.16;29.55
18821;BME280;9539;59.332;18.034;2022-07-29T08:15:52;101877.09;;;31.36;28.87
18821;BME280;9539;59.332;18.034;2022-07-29T08:18:24;101888.25;;;29.65;30.78
18821;BME280;9539;59.332;18.034;2022-07-29T08:20:51;101888.69;;;31.38;29.66
18821;BME280;9539;59.332;18.034;2022-07-29T08:23:18;101887.38;;;30.51;29.36
18821;BME280;9539;59.332;18.034;2022-07-29T08:25:45;101885.44;;;32.04;27.70
18821;BME280;9539;59.332;18.034;2022-07-29T08:28:12;101886.31;;;31.63;27.89
18821;BME280;9539;59.332;18.034;2022-07-29T08:30:40;101881.06;;;29.64;29.61
18821;BME280;9539;59.332;18.034;2022-07-29T08:33:07;101888.44;;;30.35;29.08
18821;BME280;9539;59.332;18.034;2022-07-29T08:35:34;101885.66;;;30.29;28.86
18821;BME280;9539;59.332;18.034;2022-07-29T08:38:01;101886.94;;;28.03;31.68
18821;BME280;9539;59.332;18.034;2022-07-29T08:40:31;101888.56;;;24.85;36.12
18821;BME280;9539;59.332;18.034;2022-07-29T08:42:58;101885.59;;;27.13;34.12
18821;BME280;9539;59.332;18.034;2022-07-29T08:45:28;101885.09;;;25.44;35.72
18821;BME280;9539;59.332;18.034;2022-07-29T08:47:59;101884.22;;;26.36;34.88
18821;BME280;9539;59.332;18.034;2022-07-29T08:50:26;101880.78;;;27.23;33.34
18821;BME280;9539;59.332;18.034;2022-07-29T08:52:53;101885.41;;;24.72;36.24
18821;BME280;9539;59.332;18.034;2022-07-29T08:55:23;101895.50;;;25.91;37.15
18821;BME280;9539;59.332;18.034;2022-07-29T08:57:49;101892.06;;;27.03;34.10
18821;BME280;9539;59.332;18.034;2022-07-29T09:00:17;101893.09;;;26.70;33.95
18821;BME280;9539;59.332;18.034;2022-07-29T09:02:50;101896.75;;;25.36;35.77
18821;BME280;9539;59.332;18.034;2022-07-29T09:05:19;101896.56;;;24.43;37.52
18821;BME280;9539;59.332;18.034;2022-07-29T09:07:45;101885.25;;;25.17;36.55
18821;BME280;9539;59.332;18.034;2022-07-29T09:10:13;101879.53;;;25.20;37.19
18821;BME280;9539;59.332;18.034;2022-07-29T09:12:40;101888.75;;;25.27;37.18
18821;BME280;9539;59.332;18.034;2022-07-29T09:15:07;101884.16;;;26.19;35.62
18821;BME280;9539;59.332;18.034;2022-07-29T09:17:41;101876.75;;;26.62;35.10
18821;BME280;9539;59.332;18.034;2022-07-29T09:20:12;101883.22;;;25.78;35.58
18821;BME280;9539;59.332;18.034;2022-07-29T09:22:41;101884.34;;;25.68;35.71
18821;BME280;9539;59.332;18.034;2022-07-29T09:25:08;101888.59;;;23.69;38.87
18821;BME280;9539;59.332;18.034;2022-07-29T09:27:35;101885.91;;;24.32;38.70
18821;BME280;9539;59.332;18.034;2022-07-29T09:30:03;101881.09;;;25.30;37.43
18821;BME280;9539;59.332;18.034;2022-07-29T09:32:31;101876.59;;;26.47;35.32
18821;BME280;9539;59.332;18.034;2022-07-29T09:35:18;101877.47;;;25.56;36.48
18821;BME280;9539;59.332;18.034;2022-07-29T09:37:46;101872.94;;;26.14;36.18
18821;BME280;9539;59.332;18.034;2022-07-29T09:40:15;101866.81;;;28.04;33.02
18821;BME280;9539;59.332;18.034;2022-07-29T09:42:42;101873.44;;;27.31;34.49
18821;BME280;9539;59.332;18.034;2022-07-29T09:45:10;101861.19;;;26.14;36.03
18821;BME280;9539;59.332;18.034;2022-07-29T09:47:41;101866.38;;;25.07;36.41
18821;BME280;9539;59.332;18.034;2022-07-29T09:50:13;101872.00;;;24.88;38.18
18821;BME280;9539;59.332;18.034;2022-07-29T09:52:48;101871.38;;;27.33;34.60
18821;BME280;9539;59.332;18.034;2022-07-29T09:55:16;101867.22;;;26.42;35.37
18821;BME280;9539;59.332;18.034;2022-07-29T09:57:43;101876.06;;;26.68;35.47
18821;BME280;9539;59.332;18.034;2022-07-29T10:00:12;101873.09;;;28.81;32.33
18821;BME280;9539;59.332;18.034;2022-07-29T10:02:41;101868.75;;;29.38;31.82
18821;BME280;9539;59.332;18.034;2022-07-29T10:05:18;101864.19;;;30.11;29.69
18821;BME280;9539;59.332;18.034;2022-07-29T10:07:48;101871.44;;;27.72;32.92
18821;BME280;9539;59.332;18.034;2022-07-29T10:10:19;101873.84;;;24.87;37.22
18821;BME280;9539;59.332;18.034;2022-07-29T10:12:51;101865.78;;;24.95;37.35
18821;BME280;9539;59.332;18.034;2022-07-29T10:15:20;101876.53;;;24.26;39.34
18821;BME280;9539;59.332;18.034;2022-07-29T10:17:48;101873.69;;;23.08;41.56
18821;BME280;9539;59.332;18.034;2022-07-29T10:20:22;101870.94;;;23.65;41.30
18821;BME280;9539;59.332;18.034;2022-07-29T10:22:51;101863.06;;;24.78;39.96
18821;BME280;9539;59.332;18.034;2022-07-29T10:25:22;101868.66;;;25.96;36.52
18821;BME280;9539;59.332;18.034;2022-07-29T10:27:50;101870.78;;;26.34;35.95
18821;BME280;9539;59.332;18.034;2022-07-29T10:30:22;101869.50;;;25.96;35.62
18821;BME280;9539;59.332;18.034;2022-07-29T10:33:08;101866.00;;;24.41;38.29
18821;BME280;9539;59.332;18.034;2022-07-29T10:35:47;101863.19;;;24.68;38.48
18821;BME280;9539;59.332;18.034;2022-07-29T10:38:42;101864.16;;;26.45;36.01
18821;BME280;9539;59.332;18.034;2022-07-29T10:41:36;101864.78;;;27.28;34.67
18821;BME280;9539;59.332;18.034;2022-07-29T10:44:12;101869.25;;;27.99;33.53
18821;BME280;9539;59.332;18.034;2022-07-29T10:46:41;101863.53;;;27.30;33.85
18821;BME280;9539;59.332;18.034;2022-07-29T10:49:11;101864.09;;;27.18;33.66
18821;BME280;9539;59.332;18.034;2022-07-29T10:51:56;101867.53;;;26.39;34.81
18821;BME280;9539;59.332;18.034;2022-07-29T10:54:48;101860.75;;;26.75;34.24
18821;BME280;9539;59.332;18.034;2022-07-29T10:57:23;101856.31;;;27.07;33.59
18821;BME280;9539;59.332;18.034;2022-07-29T11:00:28;101852.22;;;26.86;33.26
18821;BME280;9539;59.332;18.034;2022-07-29T11:02:54;101851.56;;;26.92;33.85
18821;BME280;9539;59.332;18.034;2022-07-29T11:05:23;101846.13;;;26.76;34.28
18821;BME280;9539;59.332;18.034;2022-07-29T11:08:20;101846.44;;;26.73;34.34
18821;BME280;9539;59.332;18.034;2022-07-29T11:10:53;101843.97;;;25.73;36.68
18821;BME280;9539;59.332;18.034;2022-07-29T11:13:47;101847.66;;;25.04;36.93
18821;BME280;9539;59.332;18.034;2022-07-29T11:16:18;101842.38;;;23.70;39.42
18821;BME280;9539;59.332;18.034;2022-07-29T11:19:19;101853.66;;;23.66;39.50
18821;BME280;9539;59.332;18.034;2022-07-29T11:21:47;101848.28;;;23.56;39.71
18821;BME280;9539;59.332;18.034;2022-07-29T11:24:16;101843.19;;;23.98;38.82
18821;BME280;9539;59.332;18.034;2022-07-29T11:26:44;101840.59;;;24.24;38.80
18821;BME280;9539;59.332;18.034;2022-07-29T11:29:17;101836.91;;;24.15;39.27
18821;BME280;9539;59.332;18.034;2022-07-29T11:31:46;101841.16;;;23.82;40.05
18821;BME280;9539;59.332;18.034;2022-07-29T11:34:25;101839.38;;;23.91;39.56
18821;BME280;9539;59.332;18.034;2022-07-29T11:37:22;101844.19;;;23.97;39.58
18821;BME280;9539;59.332;18.034;2022-07-29T11:40:13;101842.19;;;23.44;40.14
18821;BME280;9539;59.332;18.034;2022-07-29T11:42:44;101843.34;;;23.52;41.31
18821;BME280;9539;59.332;18.034;2022-07-29T11:45:16;101855.09;;;23.33;40.99
18821;BME280;9539;59.332;18.034;2022-07-29T11:47:50;101844.03;;;23.44;41.61
18821;BME280;9539;59.332;18.034;2022-07-29T11:50:28;101836.81;;;22.98;41.46
18821;BME280;9539;59.332;18.034;2022-07-29T11:52:59;101841.38;;;23.34;40.17
18821;BME280;9539;59.332;18.034;2022-07-29T11:55:26;101838.41;;;23.28;40.65
18821;BME280;9539;59.332;18.034;2022-07-29T11:57:55;101840.78;;;23.03;41.39
18821;BME280;9539;59.332;18.034;2022-07-29T12:00:28;101837.38;;;23.38;40.73
18821;BME280;9539;59.332;18.034;2022-07-29T12:02:56;101836.47;;;23.10;40.72
18821;BME280;9539;59.332;18.034;2022-07-29T12:05:40;101840.94;;;23.39;40.54
18821;BME280;9539;59.332;18.034;2022-07-29T12:08:14;101840.50;;;23.06;41.20
18821;BME280;9539;59.332;18.034;2022-07-29T12:10:42;101828.25;;;23.67;41.23
18821;BME280;9539;59.332;18.034;2022-07-29T12:13:10;101835.53;;;23.39;40.96
18821;BME280;9539;59.332;18.034;2022-07-29T12:15:38;101842.78;;;23.93;40.05
18821;BME280;9539;59.332;18.034;2022-07-29T12:18:12;101839.94;;;23.67;40.64
18821;BME280;9539;59.332;18.034;2022-07-29T12:20:47;101830.59;;;23.25;42.39
18821;BME280;9539;59.332;18.034;2022-07-29T12:23:14;101831.00;;;23.30;41.58
18821;BME280;9539;59.332;18.034;2022-07-29T12:25:43;101827.84;;;22.97;41.62
18821;BME280;9539;59.332;18.034;2022-07-29T12:28:13;101833.72;;;22.83;41.52
18821;BME280;9539;59.332;18.034;2022-07-29T12:30:44;101827.81;;;23.07;42.28
18821;BME280;9539;59.332;18.034;2022-07-29T12:33:14;101830.81;;;23.04;42.40
18821;BME280;9539;59.332;18.034;2022-07-29T12:35:42;101828.00;;;23.60;40.79
18821;BME280;9539;59.332;18.034;2022-07-29T12:38:10;101814.75;;;24.38;39.12
18821;BME280;9539;59.332;18.034;2022-07-29T12:40:40;101823.50;;;24.32;38.58
18821;BME280;9539;59.332;18.034;2022-07-29T12:43:13;101825.34;;;23.78;39.46
18821;BME280;9539;59.332;18.034;2022-07-29T12:45:41;101827.56;;;23.28;39.52
18821;BME280;9539;59.332;18.034;2022-07-29T12:48:08;101822.94;;;23.75;38.76
18821;BME280;9539;59.332;18.034;2022-07-29T12:50:55;101822.16;;;23.65;39.75
18821;BME280;9539;59.332;18.034;2022-07-29T12:53:21;101813.59;;;23.32;39.51
18821;BME280;9539;59.332;18.034;2022-07-29T12:55:50;101809.22;;;22.85;41.07
18821;BME280;9539;59.332;18.034;2022-07-29T12:58:33;101819.63;;;23.26;40.16
18821;BME280;9539;59.332;18.034;2022-07-29T13:01:14;101816.91;;;23.26;40.95
18821;BME280;9539;59.332;18.034;2022-07-29T13:03:47;101816.06;;;23.26;39.18